Kirov, Russia
Current Conditions -  °F | °C
As of 9:00 PM on Sunday 23 Nov 2014 (Local Time) from UWKS Reporting Station
Light Snow Light Snow  
Wind Chill:   Ceiling: 2000
Heat Index: 12°   Visibility: 6mi
Dew Point:   Wind: 9mph
Humidity: 85%   Direction: 50°NE
Pressure: 30.59"   Gusts: NA
Location:  58.6°N, 49.66°E
Report Text: UWKS 231700Z 05004MPS 9999 -SN BKN020 M11/M13 Q1036 NOSIG RMKQFE761 06420158
Loading
Personal Weather Stations






























Interactive Weather Map New forecast layout! Learn more

10-Day Weather Forecast

Advertisements
Track Severe Weather on mobile